Terminal Aerodrome Forecast
Issued by NWS Knoxville/Tri Cities, TN

Home | Current Version | Previous Version | Text Only | Print | Product List | Glossary On
Versions: 1 2 3 4 5 6 7 8 9 10 11 12
000
FTUS44 KMRX 242335
TAFCHA
TAF
KCHA 242335Z 2500/2524 VRB03KT P6SM SCT250
     FM250900 00000KT 6SM BR SCT002
     FM251300 VRB03KT P6SM SCT120 BKN150
     FM251700 26006KT P6SM BKN100
     FM252200 33008KT P6SM SCT060 BKN120=

USA.gov is the U.S. government's official web portal to all federal, state and local government web resources and services.